createdAt,value
2022-09-13T00:01:04.132Z,19340.31
2022-09-13T00:03:32.546Z,19358.63
2022-09-13T00:06:08.741Z,19370.81
2022-09-13T00:08:36.887Z,19338.28
2022-09-13T00:11:05.133Z,19350.50
2022-09-13T00:13:33.139Z,19366.75
2022-09-13T00:16:03.791Z,19354.56
2022-09-13T00:18:33.150Z,19366.75
2022-09-13T00:21:11.203Z,19374.88
2022-09-13T00:23:40.844Z,19378.94
2022-09-13T00:26:11.909Z,19336.25
2022-09-13T00:28:40.958Z,19342.34
2022-09-13T00:31:11.155Z,19380.97
2022-09-13T00:33:40.757Z,19317.97
2022-09-13T00:36:12.052Z,19352.53
2022-09-13T00:38:41.464Z,19332.19
2022-09-13T00:41:14.612Z,19311.88
2022-09-13T00:43:48.032Z,19322.03
2022-09-13T00:46:25.544Z,19311.88
2022-09-13T00:49:02.925Z,19364.72
2022-09-13T00:51:32.576Z,19320.00
2022-09-13T00:54:02.980Z,19291.56
2022-09-13T00:56:39.070Z,19261.06
2022-09-13T00:59:14.007Z,19289.53
2022-09-13T01:01:48.585Z,19299.69
2022-09-13T01:04:21.838Z,19248.88
2022-09-13T01:06:53.519Z,19315.94
2022-09-13T01:09:21.671Z,19334.22
2022-09-13T01:11:55.667Z,19275.31
2022-09-13T01:14:25.235Z,19244.81
2022-09-13T01:16:54.313Z,19281.41
2022-09-13T01:19:23.713Z,19252.94
2022-09-13T01:22:29.369Z,19303.75
2022-09-13T01:25:31.626Z,19283.44
2022-09-13T01:28:26.882Z,19252.94
2022-09-13T01:31:03.568Z,19212.31
2022-09-13T01:33:53.919Z,19228.56
2022-09-13T01:36:52.220Z,19257.00
2022-09-13T01:39:43.001Z,19224.50
2022-09-13T01:42:22.932Z,19238.72
2022-09-13T01:45:11.055Z,19263.09
2022-09-13T01:47:54.418Z,19236.69
2022-09-13T01:50:37.062Z,19187.91
2022-09-13T01:53:19.122Z,19210.28
2022-09-13T01:55:59.099Z,19232.63
2022-09-13T01:58:34.553Z,19187.91
2022-09-13T02:01:13.602Z,19210.28
2022-09-13T02:03:53.766Z,19187.91
2022-09-13T02:06:27.454Z,19189.97
2022-09-13T02:09:01.492Z,19147.28
2022-09-13T02:11:30.208Z,19161.50
2022-09-13T02:14:06.980Z,19187.91
2022-09-13T02:16:40.527Z,19206.22
2022-09-13T02:19:18.488Z,19198.09
2022-09-13T02:21:53.562Z,19212.31
2022-09-13T02:24:29.227Z,19155.41
2022-09-13T02:27:03.671Z,19212.31
2022-09-13T02:29:36.636Z,19157.44
2022-09-13T02:32:14.017Z,19147.28
2022-09-13T02:34:52.701Z,19145.25
2022-09-13T02:37:21.824Z,19171.66
2022-09-13T02:39:56.684Z,19155.41
2022-09-13T02:42:33.097Z,19157.44
2022-09-13T02:45:01.709Z,19070.06
2022-09-13T02:47:45.993Z,19116.81
2022-09-13T02:50:33.755Z,19092.41
2022-09-13T02:53:15.643Z,19094.44
2022-09-13T02:55:56.129Z,19106.66
2022-09-13T02:58:35.388Z,19110.72
2022-09-13T03:01:03.727Z,19129.00
2022-09-13T03:03:31.891Z,19118.84
2022-09-13T03:06:01.891Z,19100.53
2022-09-13T03:08:31.689Z,19072.09
2022-09-13T03:11:14.196Z,19068.03
2022-09-13T03:14:17.321Z,19082.25
2022-09-13T03:17:06.201Z,19061.94
2022-09-13T03:19:54.250Z,19057.88
2022-09-13T03:23:30.394Z,19074.13
2022-09-13T03:26:27.798Z,19080.22
2022-09-13T03:29:14.804Z,19090.38
2022-09-13T03:31:59.222Z,19068.03
2022-09-13T03:34:49.024Z,19080.22
2022-09-13T03:37:30.882Z,19082.25
2022-09-13T03:40:08.317Z,19057.88
2022-09-13T03:42:47.403Z,19053.81
2022-09-13T03:45:23.390Z,19059.91
2022-09-13T03:47:53.481Z,19031.47
2022-09-13T03:50:26.040Z,19053.81
2022-09-13T03:53:01.654Z,19039.59
2022-09-13T03:55:33.786Z,19057.88
2022-09-13T03:58:02.270Z,19009.09
2022-09-13T04:00:30.471Z,19072.09
2022-09-13T04:02:58.713Z,19078.19
2022-09-13T04:05:27.001Z,19055.84
2022-09-13T04:07:54.987Z,19039.59
2022-09-13T04:10:24.244Z,19013.16
2022-09-13T04:12:55.872Z,19047.72
2022-09-13T04:15:24.635Z,19013.16
2022-09-13T04:17:52.619Z,19068.03
2022-09-13T04:20:21.034Z,19053.81
2022-09-13T04:22:53.263Z,19066.00
2022-09-13T04:25:22.759Z,19033.50
2022-09-13T04:27:56.752Z,19041.63
2022-09-13T04:30:25.203Z,19025.38
2022-09-13T04:32:53.415Z,19102.56
2022-09-13T04:35:21.622Z,19098.50
2022-09-13T04:37:49.622Z,19082.25
2022-09-13T04:40:18.056Z,19078.19
2022-09-13T04:42:46.228Z,19096.47
2022-09-13T04:45:15.610Z,19011.13
2022-09-13T04:47:43.668Z,19076.16
2022-09-13T04:50:11.650Z,19021.31
2022-09-13T04:52:39.613Z,19041.63
2022-09-13T04:55:08.937Z,19078.19
2022-09-13T04:57:36.913Z,19118.84
2022-09-13T05:00:06.517Z,19082.25
2022-09-13T05:02:35.968Z,19126.97
2022-09-13T05:05:04.133Z,19124.94
2022-09-13T05:07:32.104Z,19090.38
2022-09-13T05:10:00.074Z,19133.06
2022-09-13T05:12:28.056Z,19151.34
2022-09-13T05:14:56.005Z,19163.53
2022-09-13T05:17:23.973Z,19187.91
2022-09-13T05:19:53.317Z,19200.13
2022-09-13T05:22:21.299Z,19179.78
2022-09-13T05:24:49.372Z,19157.44
2022-09-13T05:27:17.413Z,19167.59
2022-09-13T05:29:45.353Z,19179.78
2022-09-13T05:32:13.336Z,19228.56
2022-09-13T05:34:41.327Z,19216.38
2022-09-13T05:37:10.677Z,19285.47
2022-09-13T05:40:00.354Z,19295.63
2022-09-13T05:42:26.665Z,19350.50
2022-09-13T05:44:54.606Z,19391.13
2022-09-13T05:47:22.799Z,19443.97
2022-09-13T05:50:09.346Z,19443.97
2022-09-13T05:52:39.951Z,19462.25
2022-09-13T05:55:09.743Z,19492.75
2022-09-13T05:57:38.203Z,19545.56
2022-09-13T06:00:07.439Z,19551.69
2022-09-13T06:02:35.466Z,19567.94
2022-09-13T06:05:03.739Z,19517.13
2022-09-13T06:07:31.901Z,19604.50
2022-09-13T06:10:01.223Z,19643.13
2022-09-13T06:12:29.221Z,19661.41
2022-09-13T06:14:57.223Z,19655.31
2022-09-13T06:17:25.697Z,19655.31
2022-09-13T06:19:53.711Z,19590.28
2022-09-13T06:22:21.727Z,19576.06
2022-09-13T06:24:49.744Z,19549.63
2022-09-13T06:27:19.059Z,19513.06
2022-09-13T06:29:47.111Z,19502.91
2022-09-13T06:32:15.084Z,19466.31
2022-09-13T06:34:43.284Z,19456.16
2022-09-13T06:37:11.249Z,19443.97
2022-09-13T06:39:39.678Z,19435.84
2022-09-13T06:42:07.885Z,19378.94
2022-09-13T06:44:37.207Z,19393.16
2022-09-13T06:47:05.602Z,19364.72
2022-09-13T06:49:33.573Z,19370.81
2022-09-13T06:52:01.551Z,19334.22
2022-09-13T06:54:29.538Z,19358.63
2022-09-13T06:56:57.643Z,19317.97
2022-09-13T06:59:25.786Z,19317.97
2022-09-13T07:01:55.361Z,19311.88
2022-09-13T07:04:23.616Z,19334.22
2022-09-13T07:06:51.756Z,19334.22
2022-09-13T07:09:22.439Z,19328.13
2022-09-13T07:11:54.402Z,19332.19
2022-09-13T07:14:24.982Z,19269.22
2022-09-13T07:16:55.525Z,19305.78
2022-09-13T07:19:26.375Z,19317.97
2022-09-13T07:21:56.732Z,19311.88
2022-09-13T07:24:25.180Z,19293.59
2022-09-13T07:26:53.790Z,19287.50
2022-09-13T07:29:24.248Z,19291.56
2022-09-13T07:31:56.618Z,19248.88
2022-09-13T07:34:27.389Z,19275.31
2022-09-13T07:36:55.819Z,19313.91
2022-09-13T07:39:24.219Z,19354.56
2022-09-13T07:41:53.638Z,19413.47
2022-09-13T07:44:22.725Z,19385.03
2022-09-13T07:46:50.720Z,19385.03
2022-09-13T07:49:20.924Z,19419.59
2022-09-13T07:51:51.193Z,19456.16
2022-09-13T07:54:20.705Z,19525.25
2022-09-13T07:56:50.246Z,19539.47
2022-09-13T07:59:19.982Z,19580.13
2022-09-13T08:01:51.420Z,19614.66
2022-09-13T08:04:26.244Z,19626.88
2022-09-13T08:06:54.341Z,19647.19
2022-09-13T08:09:22.418Z,19653.28
2022-09-13T08:11:52.993Z,19675.63
2022-09-13T08:14:23.445Z,19761.00
2022-09-13T08:16:52.043Z,19789.44
2022-09-13T08:19:21.376Z,19824.00
2022-09-13T08:21:49.355Z,19785.38
2022-09-13T08:24:21.166Z,19809.78
2022-09-13T08:26:49.960Z,19937.81
2022-09-13T08:29:18.751Z,19832.13
2022-09-13T08:31:47.089Z,19866.69
2022-09-13T08:34:18.013Z,19923.59
2022-09-13T08:36:47.354Z,19976.44
2022-09-13T08:39:15.371Z,20045.53
2022-09-13T08:42:25.873Z,20027.25
2022-09-13T08:44:59.328Z,20086.19
2022-09-13T08:47:41.716Z,20165.44
2022-09-13T08:50:20.246Z,20118.69
2022-09-13T08:53:16.951Z,20147.16
2022-09-13T08:55:56.485Z,20082.13
2022-09-13T08:58:46.359Z,20049.59
2022-09-13T09:01:32.058Z,20080.09
2022-09-13T09:04:11.170Z,20122.78
2022-09-13T09:06:39.354Z,20179.69
2022-09-13T09:09:17.423Z,20151.22
2022-09-13T09:11:54.506Z,20204.06
2022-09-13T09:14:32.049Z,20256.91
2022-09-13T09:17:06.810Z,20350.41
2022-09-13T09:19:40.658Z,20415.47
2022-09-13T09:22:17.690Z,20429.69
2022-09-13T09:24:54.423Z,20313.84
2022-09-13T09:27:23.479Z,20411.41
2022-09-13T09:29:58.102Z,20657.34
2022-09-13T09:33:06.358Z,20586.22
2022-09-13T09:35:57.362Z,20643.13
2022-09-13T09:38:41.125Z,20663.47
2022-09-13T09:41:22.728Z,20771.19
2022-09-13T09:43:59.829Z,20830.16
2022-09-13T09:46:33.376Z,20907.41
2022-09-13T09:49:32.419Z,20929.75
2022-09-13T09:52:03.168Z,21120.88
2022-09-13T09:54:31.538Z,21110.69
2022-09-13T09:57:00.870Z,21094.44
2022-09-13T09:59:33.814Z,21163.56
2022-09-13T10:02:07.838Z,21236.75
2022-09-13T10:04:36.631Z,21240.81
2022-09-13T10:07:25.093Z,21190.00
2022-09-13T10:10:04.370Z,21230.66
2022-09-13T10:12:38.053Z,21234.72
2022-09-13T10:15:19.446Z,21250.97
2022-09-13T10:18:21.134Z,21295.72
2022-09-13T10:21:06.427Z,21277.41
2022-09-13T10:23:36.050Z,21295.72
2022-09-13T10:26:11.277Z,21368.91
2022-09-13T10:28:48.059Z,21415.66
2022-09-13T10:31:19.256Z,21423.81
2022-09-13T10:34:00.335Z,21497.00
2022-09-13T10:39:24.030Z,21478.69
2022-09-13T10:41:57.808Z,21488.88
2022-09-13T10:44:37.202Z,21547.81
2022-09-13T10:47:13.302Z,21578.31
2022-09-13T10:49:47.736Z,21625.09
2022-09-13T10:52:29.210Z,21653.56
2022-09-13T10:55:24.448Z,21643.38
2022-09-13T10:57:54.777Z,21653.56
2022-09-13T11:00:32.385Z,21665.75
2022-09-13T11:03:33.831Z,21692.19
2022-09-13T11:06:09.343Z,21645.44
2022-09-13T11:08:53.122Z,21718.63
2022-09-13T11:11:33.130Z,21690.16
2022-09-13T11:14:29.377Z,21574.25
2022-09-13T11:17:13.292Z,21570.19
2022-09-13T11:20:03.690Z,21629.16
2022-09-13T11:23:05.776Z,21724.72
2022-09-13T11:25:52.641Z,21680.00
2022-09-13T11:28:37.676Z,21661.69
2022-09-13T11:31:36.049Z,21694.22
2022-09-13T11:34:33.212Z,21712.53
2022-09-13T11:37:33.506Z,21651.53
2022-09-13T11:40:24.835Z,21645.44
2022-09-13T11:43:08.614Z,21686.09
2022-09-13T11:45:50.132Z,21623.06
2022-09-13T11:49:01.710Z,21639.31
2022-09-13T11:51:50.991Z,21684.06
2022-09-13T11:54:43.883Z,21631.19
2022-09-13T11:57:18.586Z,21551.91
2022-09-13T11:59:55.569Z,21578.31
2022-09-13T12:02:33.475Z,21633.22
2022-09-13T12:05:22.041Z,21692.19
2022-09-13T12:07:59.126Z,21714.56
2022-09-13T12:10:35.194Z,21812.16
2022-09-13T12:13:10.189Z,21869.09
2022-09-13T12:15:42.403Z,21883.31
2022-09-13T12:18:18.404Z,21911.78
2022-09-13T12:20:53.065Z,21871.13
2022-09-13T12:23:30.912Z,21875.19
2022-09-13T12:26:04.643Z,21812.16
2022-09-13T12:28:41.758Z,21836.56
2022-09-13T12:31:19.611Z,21769.47
2022-09-13T12:33:49.062Z,21710.50
2022-09-13T12:37:17.871Z,21704.38
2022-09-13T12:40:23.476Z,21736.94
2022-09-13T12:43:13.711Z,21745.06
2022-09-13T12:46:35.762Z,21724.72
2022-09-13T12:49:23.110Z,21736.94
2022-09-13T12:52:28.174Z,21706.44
2022-09-13T12:55:53.803Z,21761.31
2022-09-13T12:58:54.534Z,21706.44
2022-09-13T13:01:25.953Z,21680.00
2022-09-13T13:04:00.423Z,21734.88
2022-09-13T13:06:37.103Z,21743.03
2022-09-13T13:09:28.639Z,21808.09
2022-09-13T13:11:59.840Z,21919.94
2022-09-13T13:14:53.406Z,21848.75
2022-09-13T13:17:48.100Z,21836.56
2022-09-13T13:20:49.007Z,21885.38
2022-09-13T13:23:27.104Z,21913.84
2022-09-13T13:26:13.309Z,21972.81
2022-09-13T13:29:15.638Z,21974.84
2022-09-13T13:32:12.720Z,22023.63
2022-09-13T13:34:47.877Z,22082.63
2022-09-13T13:37:36.989Z,22050.06
2022-09-13T13:40:29.153Z,22174.13
2022-09-13T13:43:32.738Z,22202.59
2022-09-13T13:46:28.821Z,22208.69
2022-09-13T13:49:17.935Z,22119.22
2022-09-13T13:51:46.050Z,22050.06
2022-09-13T13:54:31.111Z,22111.09
2022-09-13T13:56:59.150Z,22088.72
2022-09-13T13:59:33.500Z,22141.59
2022-09-13T14:02:03.188Z,22062.28
2022-09-13T14:05:08.231Z,22066.34
2022-09-13T14:08:26.491Z,22015.50
2022-09-13T14:11:10.280Z,21989.06
2022-09-13T14:13:57.778Z,21999.25
2022-09-13T14:16:46.123Z,22013.47
2022-09-13T14:19:31.195Z,22007.38
2022-09-13T14:22:15.742Z,21993.13
2022-09-13T14:24:48.729Z,21921.97
2022-09-13T14:27:22.162Z,21901.63
2022-09-13T14:29:54.087Z,21919.94
2022-09-13T14:32:25.479Z,21964.66
2022-09-13T14:35:01.953Z,21917.91
2022-09-13T14:37:34.132Z,21879.25
2022-09-13T14:40:17.671Z,21921.97
2022-09-13T14:42:48.505Z,21850.78
2022-09-13T14:45:20.039Z,21869.09
2022-09-13T14:47:56.966Z,21806.06
2022-09-13T14:50:34.351Z,21765.38
2022-09-13T14:53:07.313Z,21732.84
2022-09-13T14:55:41.597Z,21680.00
2022-09-13T14:58:19.505Z,21659.66
2022-09-13T15:00:54.473Z,21649.50
2022-09-13T15:03:23.257Z,21637.28
2022-09-13T15:05:57.895Z,21578.31
2022-09-13T15:08:46.839Z,21525.47
2022-09-13T15:11:28.511Z,21541.72
2022-09-13T15:14:05.359Z,21562.06
2022-09-13T15:16:33.883Z,21551.91
2022-09-13T15:19:29.209Z,21555.97
2022-09-13T15:22:17.079Z,21594.59
2022-09-13T15:24:50.601Z,21680.00
2022-09-13T15:27:27.242Z,21692.19
2022-09-13T15:30:00.167Z,21698.28
2022-09-13T15:32:35.526Z,21686.09
2022-09-13T15:35:03.964Z,21675.94
2022-09-13T15:37:37.714Z,21706.44
2022-09-13T15:40:22.632Z,21641.34
2022-09-13T15:42:52.993Z,21616.97
2022-09-13T15:45:23.697Z,21625.09
2022-09-13T15:47:53.978Z,21649.50
2022-09-13T15:50:26.964Z,21596.63
2022-09-13T15:52:56.805Z,21608.81
2022-09-13T15:55:25.773Z,21566.13
2022-09-13T15:57:54.218Z,21527.50
2022-09-13T16:00:24.870Z,21519.34
2022-09-13T16:02:53.142Z,21478.69
2022-09-13T16:05:21.585Z,21499.03
2022-09-13T16:07:49.627Z,21460.41
2022-09-13T16:10:23.373Z,21474.63
2022-09-13T16:12:51.479Z,21413.63
2022-09-13T16:15:19.589Z,21431.94
2022-09-13T16:17:47.744Z,21362.81
2022-09-13T16:20:17.005Z,21419.72
2022-09-13T16:22:45.207Z,21399.41
2022-09-13T16:25:14.376Z,21375.00
2022-09-13T16:27:44.865Z,21423.81
2022-09-13T16:30:16.220Z,21393.31
2022-09-13T16:32:44.614Z,21362.81
2022-09-13T16:35:14.097Z,21344.50
2022-09-13T16:37:42.740Z,21387.19
2022-09-13T16:40:13.057Z,21360.78
2022-09-13T16:42:41.093Z,21328.25
2022-09-13T16:45:12.628Z,21269.28
2022-09-13T16:47:42.283Z,21246.91
2022-09-13T16:50:11.384Z,21253.00
2022-09-13T16:52:40.016Z,21244.88
2022-09-13T16:55:09.334Z,21204.22
2022-09-13T16:57:37.479Z,21173.72
2022-09-13T17:00:10.711Z,21147.28
2022-09-13T17:02:40.305Z,21118.84
2022-09-13T17:05:10.971Z,21031.41
2022-09-13T17:07:39.411Z,21037.50
2022-09-13T17:10:10.153Z,20998.88
2022-09-13T17:12:38.235Z,20972.47
2022-09-13T17:15:14.310Z,20917.56
2022-09-13T17:17:44.842Z,20919.59
2022-09-13T17:20:14.447Z,20905.38
2022-09-13T17:22:42.517Z,20868.78
2022-09-13T17:25:11.595Z,20860.66
2022-09-13T17:27:39.621Z,20874.88
2022-09-13T17:30:12.396Z,20832.19
2022-09-13T17:32:41.075Z,20830.16
2022-09-13T17:35:11.786Z,20793.56
2022-09-13T17:37:40.017Z,20787.47
2022-09-13T17:40:09.206Z,20815.91
2022-09-13T17:42:37.229Z,20820.00
2022-09-13T17:45:06.294Z,20761.03
2022-09-13T17:47:34.605Z,20732.56
2022-09-13T17:50:02.700Z,20693.94
2022-09-13T17:52:34.927Z,20706.16
2022-09-13T17:55:03.366Z,20700.03
2022-09-13T17:57:31.600Z,20663.47
2022-09-13T17:59:59.816Z,20659.38
2022-09-13T18:02:28.385Z,20620.78
2022-09-13T18:04:56.654Z,20618.72
2022-09-13T18:07:24.724Z,20539.47
2022-09-13T18:09:54.118Z,20580.13
2022-09-13T18:12:22.154Z,20527.25
2022-09-13T18:14:50.143Z,20494.75
2022-09-13T18:17:18.194Z,20462.22
2022-09-13T18:19:47.124Z,20433.75
2022-09-13T18:22:15.955Z,20419.53
2022-09-13T18:24:44.565Z,20391.06
2022-09-13T18:27:13.937Z,20401.22
2022-09-13T18:29:41.995Z,20334.16
2022-09-13T18:32:10.034Z,20362.63
2022-09-13T18:34:38.082Z,20299.59
2022-09-13T18:37:06.299Z,20277.25
2022-09-13T18:39:34.484Z,20307.72
2022-09-13T18:42:02.791Z,20248.78
2022-09-13T18:44:33.898Z,20269.13
2022-09-13T18:47:02.925Z,20220.34
2022-09-13T18:49:30.935Z,20208.13
2022-09-13T18:51:58.963Z,20195.94
2022-09-13T18:54:26.970Z,20181.72
2022-09-13T18:56:55.862Z,20130.91
2022-09-13T18:59:23.880Z,20143.09
2022-09-13T19:01:53.345Z,20114.63
2022-09-13T19:04:21.876Z,20114.63
2022-09-13T19:06:52.033Z,20092.28
2022-09-13T19:09:22.664Z,20069.94
2022-09-13T19:11:53.153Z,20039.44
2022-09-13T19:14:24.037Z,20010.97
2022-09-13T19:16:55.725Z,20000.81
2022-09-13T19:19:24.689Z,19927.66
2022-09-13T19:21:52.758Z,19939.84
2022-09-13T19:24:21.443Z,19917.50
2022-09-13T19:26:51.978Z,19874.81
2022-09-13T19:29:23.062Z,19895.13
2022-09-13T19:31:55.758Z,19826.03
2022-09-13T19:34:24.539Z,19836.19
2022-09-13T19:36:57.637Z,19805.72
2022-09-13T19:39:29.645Z,19848.38
2022-09-13T19:41:59.624Z,19785.38
2022-09-13T19:44:28.206Z,19758.97
2022-09-13T19:47:36.289Z,19864.66
2022-09-13T19:49:45.663Z,19797.59
2022-09-13T19:52:13.670Z,19850.41
2022-09-13T19:54:41.968Z,19805.72
2022-09-13T19:57:10.246Z,19771.16
2022-09-13T19:59:38.349Z,19801.66
2022-09-13T20:02:07.743Z,19789.44
2022-09-13T20:04:36.060Z,19744.75
2022-09-13T20:07:04.225Z,19769.13
2022-09-13T20:09:32.604Z,19736.59
2022-09-13T20:12:01.074Z,19728.47
2022-09-13T20:14:29.463Z,19700.03
2022-09-13T20:16:57.931Z,19718.31
2022-09-13T20:19:40.957Z,19712.22
2022-09-13T20:22:11.739Z,19702.06
2022-09-13T20:24:39.748Z,19689.88
2022-09-13T20:27:07.722Z,19708.16
2022-09-13T20:29:36.068Z,19681.75
2022-09-13T20:32:04.527Z,19691.91
2022-09-13T20:34:35.156Z,19685.81
2022-09-13T20:37:03.167Z,19645.16
2022-09-13T20:39:31.188Z,19647.19
2022-09-13T20:41:59.174Z,19673.59
2022-09-13T20:44:27.465Z,19702.06
2022-09-13T20:46:55.456Z,19789.44
2022-09-13T20:49:23.535Z,19793.50
2022-09-13T20:51:53.211Z,19761.00
2022-09-13T20:54:21.243Z,19748.81
2022-09-13T20:56:49.282Z,19716.28
2022-09-13T20:59:17.562Z,19698.00
2022-09-13T21:01:45.835Z,19671.56
2022-09-13T21:04:13.999Z,19704.09
2022-09-13T21:07:03.566Z,19683.78
2022-09-13T21:09:32.507Z,19675.63
2022-09-13T21:12:02.265Z,19655.31
2022-09-13T21:14:33.888Z,19639.06
2022-09-13T21:17:06.511Z,19649.22
2022-09-13T21:19:34.635Z,19630.94
2022-09-13T21:22:03.352Z,19649.22
2022-09-13T21:24:32.703Z,19614.66
2022-09-13T21:27:00.712Z,19665.47
2022-09-13T21:29:29.295Z,19610.59
2022-09-13T21:31:57.428Z,19628.91
2022-09-13T21:34:27.198Z,19622.81
2022-09-13T21:36:55.511Z,19612.63
2022-09-13T21:39:24.279Z,19610.59
2022-09-13T21:41:53.826Z,19594.34
2022-09-13T21:44:21.940Z,19608.56
2022-09-13T21:46:51.418Z,19618.75
2022-09-13T21:49:20.141Z,19649.22
2022-09-13T21:51:49.956Z,19632.97
2022-09-13T21:54:20.518Z,19632.97
2022-09-13T21:56:53.817Z,19643.13
2022-09-13T21:59:23.999Z,19637.03
2022-09-13T22:01:54.372Z,19645.16
2022-09-13T22:04:27.169Z,19649.22
2022-09-13T22:06:56.107Z,19612.63
2022-09-13T22:09:27.659Z,19655.31
2022-09-13T22:11:57.488Z,19657.34
2022-09-13T22:14:26.551Z,19600.44
2022-09-13T22:16:54.741Z,19606.53
2022-09-13T22:19:26.011Z,19596.38
2022-09-13T22:21:58.990Z,19569.97
2022-09-13T22:24:29.853Z,19594.34
2022-09-13T22:27:00.100Z,19561.84
2022-09-13T22:29:28.688Z,19567.94
2022-09-13T22:31:57.594Z,19519.16
2022-09-13T22:34:30.683Z,19539.47
2022-09-13T22:37:00.039Z,19529.31
2022-09-13T22:39:28.136Z,19555.75
2022-09-13T22:41:56.134Z,19517.13
2022-09-13T22:44:25.498Z,19517.13
2022-09-13T22:46:53.530Z,19496.81
2022-09-13T22:49:21.701Z,19521.19
2022-09-13T22:51:49.942Z,19496.81
2022-09-13T22:54:20.038Z,19504.94
2022-09-13T22:56:48.898Z,19521.19
2022-09-13T22:59:20.580Z,19496.81
2022-09-13T23:01:50.541Z,19521.19
2022-09-13T23:04:18.656Z,19476.47
2022-09-13T23:06:47.408Z,19446.00
2022-09-13T23:09:18.966Z,19448.03
2022-09-13T23:11:48.531Z,19450.06
2022-09-13T23:14:19.810Z,19435.84
2022-09-13T23:16:52.045Z,19437.88
2022-09-13T23:19:23.241Z,19423.66
2022-09-13T23:21:53.954Z,19431.78
2022-09-13T23:24:24.121Z,19439.91
2022-09-13T23:26:56.237Z,19460.22
2022-09-13T23:29:24.337Z,19403.31
2022-09-13T23:31:54.043Z,19417.56
2022-09-13T23:34:22.524Z,19419.59
2022-09-13T23:36:50.902Z,19393.16
2022-09-13T23:39:21.049Z,19395.19
2022-09-13T23:41:51.584Z,19391.13
2022-09-13T23:44:20.323Z,19425.69
2022-09-13T23:46:48.478Z,19405.34
2022-09-13T23:49:18.477Z,19405.34
2022-09-13T23:51:46.626Z,19399.25
2022-09-13T23:54:15.841Z,19427.72
2022-09-13T23:56:44.639Z,19383.00
2022-09-13T23:59:14.341Z,19393.16
